Paxton, Illinois
Current Conditions -  °F | °C
As of 5:50 AM on Thursday 27 Nov 2014 (Local Time) from KTIP Reporting Station
Haze Haze  
Wind Chill: 14°   Ceiling: 9000
Heat Index: 25°   Visibility: 5mi
Dew Point: 22°   Wind: 13mph
Humidity: 86%   Direction: 300°WNW
Pressure: 30.3"   Gusts: NA
Location:  40.46°N, 88.1°W
Report Text: KTIP 271150Z AUTO 30011KT 5SM BR OVC090 M04/M06 A3030 RMK AO2 T10371057 11024 21049
Loading
Personal Weather Stations






























Interactive Weather Map New forecast layout! Learn more

10-Day Weather Forecast

Advertisements
Track Severe Weather on mobile